首页
METAR-TAF:

METAR-TAF

机场 :

伊魁特機場

伊魁特, 努那武特, 加拿大

纬度: 63-45N, 经度: 068-33W, 海拔: 34米

当前天气观测

该预报发布于33分钟前的06:22 UTC
风速4节,风向东南
温度 0°C
湿度 100%
气压 1024 hPa
能見度: 8.0公里
多云层高于400英尺
阴天层高于1400英尺
小雪

METAR: CYFB 190622Z 13004KT 5SM -SN BKN004 OVC014 00/M00 A3023 RMK SN1ST4SC3 SLP242

时间: 02:55 (06:55 UTC)

预报

该预报发布于1小时和17分钟前的05:38 UTC
预报有效从19日的 06点(UTC)到 20日的 06点(UTC)
风速6节,风向东转东南
能見度: 10公里
散云层高于500英尺
多云层高于1200英尺
短暂存在
从 19日的 06点(UTC)到 19日的 15点(UTC)
能見度: 4.8公里
阴天层高于500英尺
小毛毛雨, 雪, 轻雾
几率 30%
从 19日的 06点(UTC)到 19日的 15点(UTC)
能見度: 0.8公里
层高于200英尺
(小) 冻, 毛毛雨, 冻雾
从 19日的 1500点(UTC)
风速6节,风向南转南东
能見度: 10公里
散云层高于600英尺
多云层高于1500英尺
短暂存在
从 19日的 15点(UTC)到 19日的 24点(UTC)
能見度: 8.0公里
多云层高于600英尺
阴天层高于1500英尺
小雨, 雪, 轻雾
几率 30%
从 19日的 15点(UTC)到 19日的 24点(UTC)
能見度: 3.2公里
多云层高于500英尺
(小) 冻, 毛毛雨, 轻雾

TAF: CYFB 190538Z 1906/2006 12006KT P6SM SCT005 BKN012 TEMPO 1906/1915 3SM -DZSN BR OVC005 PROB30 1906/1915 1/2SM -FZDZ FZFG VV002 FM191500 15006KT P6SM SCT006 BKN015 TEMPO 1915/1924 5SM -RASN BR BKN006 OVC015 PROB30 1915/1924 2SM -FZDZ BR BKN005 RMK NXT FCST BY 191200Z

超过4000个机场的气象观测和天气预报(METAR&TAF报告)。

可查询的气象台以黄色和红色小点在地图上表示。

将鼠标移到小点上方,可查看气象台名称。

然后点击查看天气观测和预报。

如需切换地图:点击带黑十字的绿色按钮放大地图;点击带横线的绿色按钮缩小地图;或者点击绿色箭头查看邻近地区的地图。


METAR-TAF: